Time;durP1;ratioP1;P1;durP2;ratioP2;P2;SDS_P1;SDS_P2;PMS_P1;PMS_P2;Temp;Humidity;BMP_temperature;BMP_pressure;BME280_temperature;BME280_humidity;BME280_pressure;Samples;Min_cycle;Max_cycle;Signal;HPM_P1;HPM_P2
2020/12/19 00:01:32;;;;;;;5.63;3.67;;;6.10;92.30;;;;;;5036928;28;20055;-69
2020/12/19 00:03:58;;;;;;;7.75;4.10;;;6.00;93.00;;;;;;5036737;28;20108;-69
2020/12/19 00:06:24;;;;;;;5.57;3.20;;;5.80;93.40;;;;;;5036254;28;20120;-69
2020/12/19 00:08:50;;;;;;;6.75;3.85;;;5.80;93.70;;;;;;5038162;28;20067;-69
2020/12/19 00:11:16;;;;;;;6.30;4.00;;;5.70;93.30;;;;;;5037835;28;20030;-69
2020/12/19 00:13:45;;;;;;;6.75;3.88;;;5.70;93.60;;;;;;5037041;28;20025;-69
2020/12/19 00:16:15;;;;;;;7.07;4.38;;;5.60;93.70;;;;;;5035963;28;20483;-69
2020/12/19 00:18:41;;;;;;;7.95;3.95;;;5.40;94.30;;;;;;5036222;28;20597;-69
2020/12/19 00:21:08;;;;;;;8.80;4.00;;;5.30;94.70;;;;;;5037477;28;20017;-69
2020/12/19 00:23:33;;;;;;;11.18;4.60;;;5.10;95.20;;;;;;5037720;28;20061;-69
2020/12/19 00:25:59;;;;;;;9.27;4.57;;;5.00;95.40;;;;;;5035802;28;20072;-69
2020/12/19 00:28:24;;;;;;;12.75;4.63;;;4.90;95.60;;;;;;5036383;28;20033;-69
2020/12/19 00:30:50;;;;;;;6.68;4.55;;;4.90;95.90;;;;;;5035206;28;20042;-69
2020/12/19 00:33:16;;;;;;;10.00;5.03;;;4.80;96.30;;;;;;5035434;28;20076;-69
2020/12/19 00:35:44;;;;;;;8.77;5.68;;;4.70;96.40;;;;;;5036658;28;20307;-69
2020/12/19 00:38:10;;;;;;;8.95;5.00;;;4.60;96.30;;;;;;5035784;28;20029;-69
2020/12/19 00:40:38;;;;;;;6.95;4.13;;;4.40;96.90;;;;;;5037160;28;20030;-69
2020/12/19 00:43:04;;;;;;;11.05;6.50;;;4.40;97.10;;;;;;5037280;28;20021;-68
2020/12/19 00:45:29;;;;;;;8.00;4.85;;;4.30;97.20;;;;;;5033095;28;20037;-68
2020/12/19 00:47:55;;;;;;;9.80;4.60;;;4.30;97.20;;;;;;5034992;28;20068;-69
2020/12/19 00:50:21;;;;;;;8.85;4.20;;;4.30;97.20;;;;;;5035686;28;20176;-69
2020/12/19 00:52:47;;;;;;;8.10;5.15;;;4.30;97.10;;;;;;5036514;28;20350;-69
2020/12/19 00:55:12;;;;;;;10.02;4.50;;;4.30;97.00;;;;;;5036500;28;20552;-69
2020/12/19 00:57:41;;;;;;;6.05;3.75;;;4.30;97.20;;;;;;5035515;28;20426;-69
2020/12/19 01:00:08;;;;;;;8.00;4.90;;;4.40;97.20;;;;;;5035098;28;20029;-68
2020/12/19 01:02:40;;;;;;;8.00;5.00;;;4.50;97.20;;;;;;5034764;28;20080;-68
2020/12/19 01:05:09;;;;;;;7.93;4.93;;;4.40;96.90;;;;;;5036679;28;20084;-69
2020/12/19 01:07:38;;;;;;;10.55;4.88;;;4.30;97.10;;;;;;5036680;28;20037;-68
2020/12/19 01:10:10;;;;;;;11.10;5.65;;;4.10;97.30;;;;;;5035892;28;20315;-68
2020/12/19 01:12:38;;;;;;;10.60;6.72;;;4.00;97.40;;;;;;5029774;28;20029;-71
2020/12/19 01:15:06;;;;;;;7.32;4.57;;;3.80;97.80;;;;;;5036069;28;20033;-69
2020/12/19 01:17:31;;;;;;;6.95;4.60;;;3.70;98.00;;;;;;5035283;28;20025;-70
2020/12/19 01:19:59;;;;;;;6.30;4.45;;;3.70;98.00;;;;;;5034939;28;20075;-69
2020/12/19 01:22:25;;;;;;;8.63;5.45;;;3.60;98.00;;;;;;5036384;28;20022;-70
2020/12/19 01:24:51;;;;;;;12.88;6.32;;;3.40;98.00;;;;;;5036350;28;20300;-69
2020/12/19 01:27:16;;;;;;;8.50;5.50;;;3.30;98.00;;;;;;5036784;28;20034;-69
2020/12/19 01:29:42;;;;;;;9.50;5.03;;;3.30;98.00;;;;;;5036324;28;20031;-69
2020/12/19 01:32:08;;;;;;;10.07;6.20;;;3.40;98.00;;;;;;5035480;28;20064;-69
2020/12/19 01:34:33;;;;;;;9.10;5.95;;;3.50;98.00;;;;;;5036206;28;20037;-69
2020/12/19 01:37:01;;;;;;;9.35;5.50;;;3.50;98.00;;;;;;5036496;28;20092;-69
2020/12/19 01:39:27;;;;;;;9.07;5.55;;;3.40;98.00;;;;;;5035657;28;20017;-69
2020/12/19 01:41:53;;;;;;;8.52;5.40;;;3.30;98.00;;;;;;5035526;28;20030;-69
2020/12/19 01:44:19;;;;;;;12.75;6.53;;;3.20;98.00;;;;;;5036205;28;20029;-69
2020/12/19 01:46:55;;;;;;;10.13;6.15;;;3.10;98.00;;;;;;5034888;28;20468;-68
2020/12/19 01:49:23;;;;;;;8.52;6.15;;;3.00;98.00;;;;;;5032186;28;20041;-69
2020/12/19 01:51:54;;;;;;;8.68;5.60;;;3.00;98.00;;;;;;5016712;28;20022;-69
2020/12/19 01:54:21;;;;;;;9.23;5.95;;;3.00;98.00;;;;;;5049796;28;20025;-69
2020/12/19 01:56:55;;;;;;;8.93;5.32;;;2.90;98.00;;;;;;5055142;28;20114;-69
2020/12/19 01:59:23;;;;;;;9.30;5.25;;;2.90;98.00;;;;;;5035313;28;20104;-69
2020/12/19 02:01:54;;;;;;;7.25;4.93;;;2.90;98.00;;;;;;5034876;28;20029;-69
2020/12/19 02:04:25;;;;;;;6.85;4.22;;;2.90;98.00;;;;;;5035921;28;20032;-69
2020/12/19 02:06:58;;;;;;;10.02;5.57;;;3.00;98.00;;;;;;5035570;28;20478;-69
2020/12/19 02:09:27;;;;;;;9.35;6.30;;;3.10;98.00;;;;;;5035833;28;20034;-68
2020/12/19 02:11:54;;;;;;;8.60;5.15;;;3.00;98.00;;;;;;5035416;28;20025;-68
2020/12/19 02:14:23;;;;;;;9.77;6.07;;;2.90;98.00;;;;;;5035658;28;20056;-69
2020/12/19 02:16:58;;;;;;;13.05;5.43;;;2.90;98.00;;;;;;5034207;28;20033;-68
2020/12/19 02:19:24;;;;;;;12.85;5.10;;;3.00;98.00;;;;;;5031146;28;20029;-69
2020/12/19 02:21:51;;;;;;;10.75;4.72;;;3.10;98.00;;;;;;5035663;28;20031;-69
2020/12/19 02:24:16;;;;;;;7.90;4.63;;;3.10;98.00;;;;;;5035107;28;20052;-69
2020/12/19 02:26:47;;;;;;;7.57;4.63;;;3.10;98.00;;;;;;5035429;28;20056;-69
2020/12/19 02:29:13;;;;;;;6.82;4.28;;;3.00;98.00;;;;;;5034758;28;20430;-69
2020/12/19 02:31:38;;;;;;;5.78;3.88;;;3.20;98.00;;;;;;5033709;28;20052;-69
2020/12/19 02:34:04;;;;;;;7.03;4.13;;;3.50;98.00;;;;;;5034809;28;20160;-69
2020/12/19 02:36:30;;;;;;;6.97;4.22;;;3.70;98.00;;;;;;5035309;28;20102;-69
2020/12/19 02:38:55;;;;;;;8.77;4.30;;;3.80;98.00;;;;;;5034999;28;20414;-69
2020/12/19 02:41:24;;;;;;;7.53;4.03;;;3.70;98.00;;;;;;5035095;28;20041;-68
2020/12/19 02:43:56;;;;;;;6.88;4.18;;;3.70;98.00;;;;;;5035016;28;20100;-69
2020/12/19 02:46:23;;;;;;;6.68;4.40;;;3.70;98.00;;;;;;5031248;28;20079;-69
2020/12/19 02:48:49;;;;;;;6.15;3.45;;;3.70;98.00;;;;;;5034910;28;20045;-68
2020/12/19 02:51:16;;;;;;;6.63;3.78;;;3.80;98.00;;;;;;5034677;28;20037;-69
2020/12/19 02:53:42;;;;;;;5.97;4.00;;;3.90;98.00;;;;;;5035081;28;20025;-68
2020/12/19 02:56:08;;;;;;;7.53;4.47;;;3.80;98.00;;;;;;5033756;28;20457;-69
2020/12/19 02:58:34;;;;;;;8.27;5.05;;;3.80;98.00;;;;;;5033526;28;20303;-69
2020/12/19 03:01:00;;;;;;;7.43;4.07;;;3.70;98.00;;;;;;5031758;28;20040;-69
2020/12/19 03:03:26;;;;;;;7.10;4.10;;;3.60;98.00;;;;;;5034672;28;20052;-69
2020/12/19 03:05:52;;;;;;;6.35;4.03;;;3.50;98.00;;;;;;5034139;28;20124;-68
2020/12/19 03:08:17;;;;;;;6.10;3.72;;;3.40;98.00;;;;;;5034825;28;20029;-69
2020/12/19 03:10:43;;;;;;;6.32;3.88;;;3.40;98.00;;;;;;5034348;28;20414;-68
2020/12/19 03:13:09;;;;;;;7.50;4.55;;;3.40;98.00;;;;;;5034565;28;20056;-68
2020/12/19 03:15:37;;;;;;;6.00;3.80;;;3.40;98.00;;;;;;5034393;28;20026;-69
2020/12/19 03:18:03;;;;;;;6.57;4.78;;;3.40;98.00;;;;;;5033790;28;20033;-69
2020/12/19 03:20:29;;;;;;;7.22;4.38;;;3.40;98.00;;;;;;5034772;28;20034;-69
2020/12/19 03:22:54;;;;;;;7.88;3.97;;;3.30;98.00;;;;;;5034447;28;20033;-68
2020/12/19 03:25:20;;;;;;;6.55;4.38;;;3.30;98.00;;;;;;5033782;28;20029;-69
2020/12/19 03:27:46;;;;;;;7.85;4.43;;;3.20;98.00;;;;;;5034636;28;20033;-69
2020/12/19 03:30:11;;;;;;;7.15;4.63;;;3.10;98.00;;;;;;5034043;28;20040;-69
2020/12/19 03:32:37;;;;;;;5.78;3.72;;;3.10;98.00;;;;;;5033429;28;20033;-68
2020/12/19 03:35:03;;;;;;;9.73;3.85;;;3.10;98.00;;;;;;5033815;28;20049;-69
2020/12/19 03:37:33;;;;;;;7.28;3.25;;;3.00;98.00;;;;;;5034490;28;20021;-69
2020/12/19 03:40:00;;;;;;;7.15;3.55;;;3.00;98.00;;;;;;5033596;28;20357;-69
2020/12/19 03:42:32;;;;;;;8.13;3.83;;;3.10;98.00;;;;;;5029403;28;20433;-69
2020/12/19 03:44:57;;;;;;;7.38;3.65;;;3.10;98.00;;;;;;5034046;28;20052;-69
2020/12/19 03:47:23;;;;;;;9.20;5.50;;;3.20;98.00;;;;;;5033558;28;20022;-69
2020/12/19 03:49:49;;;;;;;8.68;5.82;;;3.60;98.00;;;;;;5034130;28;20069;-69
2020/12/19 03:52:14;;;;;;;9.13;5.57;;;4.00;98.00;;;;;;5034558;28;20041;-69
2020/12/19 03:54:40;;;;;;;8.63;5.53;;;4.10;98.00;;;;;;5034012;28;20021;-68
2020/12/19 03:57:09;;;;;;;7.70;5.10;;;4.10;98.00;;;;;;5033554;28;20204;-68
2020/12/19 03:59:37;;;;;;;8.02;5.13;;;4.10;98.00;;;;;;5033094;28;20025;-68
2020/12/19 04:02:03;;;;;;;7.47;4.65;;;4.00;98.00;;;;;;5033104;28;20411;-68
2020/12/19 04:04:31;;;;;;;8.07;4.60;;;3.90;98.00;;;;;;5034401;28;20052;-68
2020/12/19 04:07:00;;;;;;;8.70;4.80;;;3.70;98.00;;;;;;5032588;28;20549;-70
2020/12/19 04:09:25;;;;;;;7.70;4.25;;;3.60;98.00;;;;;;5034651;28;20438;-70
2020/12/19 04:11:51;;;;;;;7.47;4.60;;;3.50;98.00;;;;;;5035828;28;20032;-68
2020/12/19 04:14:17;;;;;;;7.22;4.88;;;3.40;98.00;;;;;;5038349;28;20103;-68
2020/12/19 04:16:45;;;;;;;10.05;5.53;;;3.30;98.00;;;;;;5036317;28;20048;-68
2020/12/19 04:19:11;;;;;;;8.52;5.75;;;3.20;98.00;;;;;;5037719;28;20025;-68
2020/12/19 04:21:36;;;;;;;9.15;5.78;;;3.20;98.00;;;;;;5037738;28;20033;-69
2020/12/19 04:24:02;;;;;;;10.95;7.72;;;3.20;98.00;;;;;;5036723;28;20044;-69
2020/12/19 04:26:27;;;;;;;12.73;8.35;;;3.30;98.00;;;;;;5037484;28;20037;-69
2020/12/19 04:28:53;;;;;;;10.15;5.25;;;3.40;98.00;;;;;;5036754;28;20033;-69
2020/12/19 04:31:19;;;;;;;6.03;4.10;;;3.60;98.00;;;;;;5035474;28;20030;-69
2020/12/19 04:33:44;;;;;;;6.18;4.03;;;3.90;98.00;;;;;;5036952;28;20064;-69
2020/12/19 04:36:10;;;;;;;6.80;4.28;;;4.20;98.00;;;;;;5037387;28;20144;-69
2020/12/19 04:38:35;;;;;;;10.55;4.97;;;4.20;98.00;;;;;;5037653;28;20075;-69
2020/12/19 04:41:02;;;;;;;9.65;6.75;;;4.10;98.00;;;;;;5037181;28;20477;-69
2020/12/19 04:43:36;;;;;;;9.43;6.00;;;3.80;98.00;;;;;;5037019;28;20430;-69
2020/12/19 04:46:05;;;;;;;10.02;6.60;;;3.60;98.00;;;;;;5035967;28;20038;-69
2020/12/19 04:48:31;;;;;;;9.02;6.13;;;3.20;98.00;;;;;;5037090;28;20042;-69
2020/12/19 04:50:57;;;;;;;8.52;6.03;;;3.10;98.00;;;;;;5036547;28;20025;-69
2020/12/19 04:53:25;;;;;;;9.20;5.95;;;3.10;98.00;;;;;;5037114;28;20031;-69
2020/12/19 04:55:51;;;;;;;7.32;4.50;;;3.10;98.00;;;;;;5036441;28;20120;-69
2020/12/19 04:58:19;;;;;;;11.80;4.82;;;3.30;98.00;;;;;;5037608;28;20100;-69
2020/12/19 05:00:47;;;;;;;10.38;5.10;;;3.40;98.00;;;;;;5035408;28;20021;-69
2020/12/19 05:03:14;;;;;;;7.93;4.43;;;3.40;98.00;;;;;;5036583;28;20035;-68
2020/12/19 05:05:46;;;;;;;7.72;4.65;;;3.60;98.00;;;;;;5030072;28;20466;-68
2020/12/19 05:08:12;;;;;;;7.63;4.28;;;3.60;98.00;;;;;;5036599;28;20025;-69
2020/12/19 05:10:38;;;;;;;6.13;2.85;;;3.70;98.00;;;;;;5035730;28;20037;-68
2020/12/19 05:13:04;;;;;;;5.88;3.45;;;3.70;98.00;;;;;;5036244;28;20025;-69
2020/12/19 05:15:30;;;;;;;6.47;4.30;;;4.00;98.00;;;;;;5041772;28;20021;-68
2020/12/19 05:18:00;;;;;;;5.78;3.38;;;4.10;98.00;;;;;;5035855;28;20029;-69
2020/12/19 05:20:28;;;;;;;5.97;3.80;;;4.20;98.00;;;;;;5036358;28;20045;-69
2020/12/19 05:22:54;;;;;;;5.95;3.58;;;4.20;98.00;;;;;;5035630;28;20113;-68
2020/12/19 05:25:22;;;;;;;5.63;3.20;;;4.20;98.00;;;;;;5036602;28;20375;-69
2020/12/19 05:27:51;;;;;;;6.10;3.50;;;4.30;98.00;;;;;;5036722;28;20029;-69
2020/12/19 05:30:18;;;;;;;7.85;3.03;;;4.30;98.00;;;;;;5035789;28;20056;-68
2020/12/19 05:32:51;;;;;;;5.30;3.40;;;4.40;98.00;;;;;;5035505;28;20322;-69
2020/12/19 05:35:23;;;;;;;5.25;3.10;;;4.40;97.80;;;;;;5035967;28;20028;-68
2020/12/19 05:38:03;;;;;;;5.05;2.55;;;4.40;97.90;;;;;;5036565;28;20525;-68
2020/12/19 05:40:30;;;;;;;4.43;2.70;;;4.40;97.70;;;;;;5036217;28;20033;-68
2020/12/19 05:42:57;;;;;;;5.13;2.95;;;4.40;97.60;;;;;;5036247;28;20014;-69
2020/12/19 05:45:24;;;;;;;7.95;3.00;;;4.30;97.90;;;;;;5028023;28;20203;-68
2020/12/19 05:47:50;;;;;;;6.63;4.05;;;4.40;97.70;;;;;;5035052;28;20037;-70
2020/12/19 05:50:18;;;;;;;5.78;3.13;;;4.50;97.40;;;;;;5035851;28;20045;-69
2020/12/19 05:52:43;;;;;;;9.90;3.78;;;4.50;97.30;;;;;;5036340;28;20354;-69
2020/12/19 05:55:16;;;;;;;8.25;4.47;;;4.50;97.20;;;;;;5035551;28;20029;-68
2020/12/19 05:57:42;;;;;;;7.10;3.47;;;4.50;97.00;;;;;;5035491;28;20037;-69
2020/12/19 06:00:13;;;;;;;6.63;3.58;;;4.50;97.00;;;;;;5035745;28;20033;-68
2020/12/19 06:02:39;;;;;;;11.95;4.60;;;4.60;96.60;;;;;;5034707;28;20325;-69
2020/12/19 06:05:08;;;;;;;7.53;4.63;;;4.60;96.40;;;;;;5035668;28;20048;-70
2020/12/19 06:07:41;;;;;;;8.70;4.90;;;4.60;96.30;;;;;;5035089;28;20021;-69
2020/12/19 06:10:09;;;;;;;6.43;3.83;;;4.50;96.00;;;;;;5034443;28;20428;-68
2020/12/19 06:12:47;;;;;;;7.47;4.47;;;4.50;96.10;;;;;;5035476;28;20321;-68
2020/12/19 06:15:26;;;;;;;7.82;4.30;;;4.70;95.30;;;;;;5034658;28;20030;-69
2020/12/19 06:18:00;;;;;;;6.68;4.22;;;4.70;94.80;;;;;;5033622;28;20021;-68
2020/12/19 06:20:29;;;;;;;9.35;5.95;;;4.60;94.70;;;;;;5033863;28;20017;-68
2020/12/19 06:22:54;;;;;;;6.65;3.63;;;4.60;94.30;;;;;;5034908;28;20037;-70
2020/12/19 06:25:39;;;;;;;13.25;5.30;;;4.70;93.70;;;;;;5034769;28;20153;-68
2020/12/19 06:28:07;;;;;;;19.73;12.38;;;4.60;93.80;;;;;;5035853;28;20030;-69
2020/12/19 06:30:36;;;;;;;17.67;11.18;;;4.30;94.80;;;;;;5034717;28;20036;-69
2020/12/19 06:33:12;;;;;;;26.45;14.25;;;3.90;96.00;;;;;;5034340;28;20025;-69
2020/12/19 06:35:46;;;;;;;17.33;12.32;;;3.50;97.10;;;;;;5035075;28;20064;-68
2020/12/19 06:38:13;;;;;;;17.40;11.63;;;3.20;97.90;;;;;;5035186;28;20029;-68
2020/12/19 06:40:39;;;;;;;14.68;9.80;;;3.00;98.00;;;;;;5035152;28;20056;-69
2020/12/19 06:43:13;;;;;;;19.55;11.98;;;2.80;98.00;;;;;;5035497;28;20147;-69
2020/12/19 06:45:40;;;;;;;17.02;11.10;;;2.60;98.00;;;;;;5033681;28;20072;-68
2020/12/19 06:48:29;;;;;;;19.50;13.20;;;2.50;98.00;;;;;;5034630;28;20029;-68
2020/12/19 06:50:58;;;;;;;10.20;6.75;;;2.30;98.00;;;;;;5022216;28;20041;-69
2020/12/19 06:53:25;;;;;;;9.02;4.88;;;2.60;98.00;;;;;;5034713;28;20095;-68
2020/12/19 06:55:51;;;;;;;9.13;3.80;;;2.90;98.00;;;;;;5033456;28;20029;-68
2020/12/19 06:58:35;;;;;;;7.63;4.10;;;3.70;96.90;;;;;;5035165;28;20028;-68
2020/12/19 07:01:22;;;;;;;5.28;3.40;;;4.50;93.30;;;;;;5033270;28;20029;-68
2020/12/19 07:03:50;;;;;;;6.05;3.72;;;5.10;90.70;;;;;;5034658;28;20111;-70
2020/12/19 07:06:16;;;;;;;6.40;2.95;;;5.60;88.40;;;;;;5034874;28;20364;-70
2020/12/19 07:08:43;;;;;;;5.70;3.70;;;6.00;86.40;;;;;;5025038;28;20318;-69
2020/12/19 07:11:35;;;;;;;5.10;3.20;;;6.20;85.90;;;;;;5033999;28;20029;-69
2020/12/19 07:14:02;;;;;;;5.55;3.40;;;6.20;85.40;;;;;;5031631;28;20085;-69
2020/12/19 07:16:46;;;;;;;6.03;3.22;;;6.10;85.70;;;;;;5033760;28;20060;-69
2020/12/19 07:19:25;;;;;;;4.78;2.65;;;6.20;84.80;;;;;;5033607;28;20017;-69
2020/12/19 07:21:56;;;;;;;5.43;3.00;;;6.30;84.20;;;;;;5019294;28;20022;-69
2020/12/19 07:24:23;;;;;;;5.28;3.00;;;6.50;83.70;;;;;;5030868;28;20484;-69
2020/12/19 07:26:51;;;;;;;4.88;2.60;;;6.70;82.90;;;;;;5021268;28;20419;-69
2020/12/19 07:29:21;;;;;;;6.75;3.17;;;6.80;82.20;;;;;;5021624;28;20021;-69
2020/12/19 07:31:50;;;;;;;5.45;3.22;;;7.00;82.30;;;;;;5014015;28;20026;-69
2020/12/19 07:34:16;;;;;;;5.57;3.00;;;6.90;82.30;;;;;;5019229;28;20025;-69
2020/12/19 07:36:43;;;;;;;5.75;3.08;;;7.00;82.20;;;;;;5032775;28;20029;-69
2020/12/19 07:39:09;;;;;;;5.68;2.65;;;7.00;82.20;;;;;;5018813;28;20335;-69
2020/12/19 07:41:36;;;;;;;5.88;2.50;;;7.10;81.90;;;;;;5013808;28;20450;-69
2020/12/19 07:44:18;;;;;;;5.13;2.67;;;7.20;81.30;;;;;;5026839;28;20423;-69
2020/12/19 07:47:12;;;;;;;4.90;2.75;;;7.30;81.20;;;;;;5025824;28;20045;-69
2020/12/19 07:49:45;;;;;;;4.45;2.63;;;7.30;81.10;;;;;;5025500;28;20041;-68
2020/12/19 07:52:21;;;;;;;5.07;2.50;;;7.20;81.10;;;;;;5035004;28;20061;-68
2020/12/19 07:55:03;;;;;;;4.68;2.60;;;7.20;81.40;;;;;;5040593;28;20040;-69
2020/12/19 07:57:31;;;;;;;4.72;2.95;;;7.20;81.00;;;;;;5035334;28;20026;-69
2020/12/19 07:59:58;;;;;;;4.65;2.58;;;7.20;81.30;;;;;;5023263;28;20026;-69
2020/12/19 08:02:24;;;;;;;5.10;3.10;;;7.10;81.60;;;;;;5029490;28;20026;-69
2020/12/19 08:04:55;;;;;;;5.07;2.85;;;7.00;81.90;;;;;;5024233;28;20323;-69
2020/12/19 08:07:24;;;;;;;5.38;2.70;;;6.90;82.60;;;;;;5024275;28;20033;-69
2020/12/19 08:10:00;;;;;;;5.60;2.95;;;6.90;82.20;;;;;;5022002;28;20026;-69
2020/12/19 08:12:31;;;;;;;5.30;2.80;;;6.90;82.10;;;;;;5035182;28;20129;-69
2020/12/19 08:15:04;;;;;;;4.85;2.63;;;6.90;82.20;;;;;;5021363;28;20088;-69
2020/12/19 08:17:37;;;;;;;5.43;2.78;;;6.90;82.00;;;;;;5025796;28;20021;-69
2020/12/19 08:20:04;;;;;;;5.32;2.47;;;6.90;81.90;;;;;;5036744;28;20501;-69
2020/12/19 08:22:31;;;;;;;4.55;2.25;;;7.00;81.20;;;;;;5029382;28;20554;-69
2020/12/19 08:24:59;;;;;;;4.43;2.25;;;7.00;81.40;;;;;;5033225;28;20418;-69
2020/12/19 08:27:49;;;;;;;4.63;2.05;;;7.00;80.90;;;;;;5038407;28;20033;-69
2020/12/19 08:30:27;;;;;;;81.40;40.60;;;7.00;81.10;;;;;;5037895;28;20374;-69
2020/12/19 08:32:58;;;;;;;28.20;17.95;;;7.20;81.30;;;;;;5043441;28;20021;-69
2020/12/19 08:35:28;;;;;;;18.00;13.82;;;7.80;81.10;;;;;;5024531;28;20322;-69
2020/12/19 08:38:06;;;;;;;7.03;3.80;;;8.80;78.70;;;;;;5032209;28;20033;-68
2020/12/19 08:41:00;;;;;;;5.55;2.72;;;9.20;76.70;;;;;;5018377;28;20018;-69
2020/12/19 08:43:40;;;;;;;3.63;2.03;;;9.90;75.20;;;;;;5033429;28;20018;-68
2020/12/19 08:46:14;;;;;;;3.92;1.80;;;10.60;72.50;;;;;;5028177;28;20091;-68
2020/12/19 08:48:42;;;;;;;3.60;1.52;;;11.40;70.30;;;;;;5027817;28;20045;-67
2020/12/19 08:51:20;;;;;;;3.35;1.77;;;12.10;67.60;;;;;;5034472;28;20419;-68
2020/12/19 08:53:49;;;;;;;3.97;1.90;;;12.70;66.20;;;;;;5017998;28;20473;-69
2020/12/19 08:56:17;;;;;;;5.97;2.10;;;13.20;64.70;;;;;;5027681;28;20026;-68
2020/12/19 08:58:55;;;;;;;3.28;1.50;;;13.50;64.50;;;;;;5035740;28;20040;-68
2020/12/19 09:01:26;;;;;;;8.02;4.40;;;13.70;62.90;;;;;;5023186;28;20407;-68
2020/12/19 09:04:06;;;;;;;3.45;1.52;;;13.50;62.70;;;;;;5028806;28;20041;-68
2020/12/19 09:06:49;;;;;;;3.47;1.40;;;13.40;62.70;;;;;;5032173;28;20108;-68
2020/12/19 09:09:17;;;;;;;2.92;1.30;;;13.70;62.10;;;;;;5032417;28;20061;-68
2020/12/19 09:11:44;;;;;;;2.33;1.20;;;13.80;61.40;;;;;;5036649;28;20033;-68
2020/12/19 09:14:11;;;;;;;3.72;1.70;;;14.00;62.00;;;;;;5035326;28;20025;-68
2020/12/19 09:16:51;;;;;;;2.97;1.40;;;14.00;61.10;;;;;;5034804;28;20033;-69
2020/12/19 09:19:18;;;;;;;2.78;1.48;;;14.20;61.20;;;;;;5036521;28;20037;-68
2020/12/19 09:22:05;;;;;;;3.25;1.40;;;14.10;62.30;;;;;;5032960;28;20017;-67
2020/12/19 09:24:31;;;;;;;3.63;1.77;;;14.40;61.20;;;;;;5036005;28;20022;-68
2020/12/19 09:26:56;;;;;;;3.38;1.52;;;14.60;61.80;;;;;;5033364;28;20029;-68
2020/12/19 09:29:22;;;;;;;4.10;1.70;;;14.80;60.60;;;;;;5023402;28;20030;-68
2020/12/19 09:31:48;;;;;;;2.72;1.33;;;14.70;60.50;;;;;;5032857;28;20358;-67
2020/12/19 09:34:14;;;;;;;2.75;1.40;;;14.60;61.10;;;;;;5024501;28;20427;-68
2020/12/19 09:36:40;;;;;;;2.70;1.33;;;15.00;61.50;;;;;;5029506;28;20296;-68
2020/12/19 09:39:06;;;;;;;3.38;1.55;;;15.50;60.40;;;;;;5030457;28;20026;-69
2020/12/19 09:41:32;;;;;;;2.92;1.38;;;15.50;59.50;;;;;;5022134;28;20025;-69
2020/12/19 09:43:59;;;;;;;3.00;1.40;;;15.20;60.20;;;;;;5032256;28;20017;-68
2020/12/19 09:46:25;;;;;;;3.08;1.42;;;15.00;61.30;;;;;;5029173;28;20029;-68
2020/12/19 09:48:51;;;;;;;3.03;1.35;;;14.90;61.60;;;;;;5018355;28;20625;-68
2020/12/19 09:51:17;;;;;;;3.85;1.45;;;14.80;61.50;;;;;;5028316;28;20041;-68
2020/12/19 09:53:43;;;;;;;3.30;1.52;;;15.10;61.80;;;;;;5032821;28;20034;-68
2020/12/19 09:56:09;;;;;;;5.25;2.20;;;15.70;60.50;;;;;;5024684;28;20052;-69
2020/12/19 09:58:34;;;;;;;6.05;2.10;;;15.70;60.30;;;;;;5028648;28;20025;-70
2020/12/19 10:01:00;;;;;;;5.85;1.52;;;15.90;59.40;;;;;;5025809;28;20029;-70
2020/12/19 10:03:26;;;;;;;3.60;1.75;;;15.90;59.80;;;;;;5016427;28;20411;-69
2020/12/19 10:05:51;;;;;;;3.35;1.73;;;15.80;61.00;;;;;;5023907;28;20048;-70
2020/12/19 10:08:17;;;;;;;2.90;1.50;;;15.70;60.00;;;;;;5028744;28;20037;-69
2020/12/19 10:10:44;;;;;;;3.90;2.10;;;15.50;61.20;;;;;;5033371;28;20017;-69
2020/12/19 10:13:11;;;;;;;3.92;1.73;;;15.60;60.60;;;;;;5031872;28;20092;-69
2020/12/19 10:15:36;;;;;;;3.80;1.85;;;15.30;61.80;;;;;;5035756;28;20037;-69
2020/12/19 10:18:02;;;;;;;3.92;1.70;;;15.60;61.70;;;;;;5034191;28;20323;-69
2020/12/19 10:20:27;;;;;;;2.80;1.40;;;15.20;60.90;;;;;;5035206;28;20418;-70
2020/12/19 10:22:53;;;;;;;3.50;1.65;;;15.10;61.90;;;;;;5033823;28;20087;-69
2020/12/19 10:25:19;;;;;;;4.97;1.60;;;15.40;61.10;;;;;;5034862;28;20318;-69
2020/12/19 10:27:45;;;;;;;4.00;1.80;;;15.40;61.30;;;;;;5035747;28;20124;-69
2020/12/19 10:30:16;;;;;;;3.78;1.50;;;15.50;60.60;;;;;;5034384;28;20426;-69
2020/12/19 10:32:41;;;;;;;4.63;1.58;;;15.30;60.60;;;;;;5033282;28;20036;-70
2020/12/19 10:35:07;;;;;;;2.72;1.30;;;15.30;60.70;;;;;;5031294;28;20029;-68
2020/12/19 10:37:36;;;;;;;2.17;1.20;;;15.40;60.10;;;;;;5032728;28;20033;-68
2020/12/19 10:40:04;;;;;;;2.83;1.40;;;15.30;59.60;;;;;;5034413;28;20033;-69
2020/12/19 10:42:30;;;;;;;4.95;1.77;;;15.00;60.80;;;;;;5034745;28;20029;-68
2020/12/19 10:44:57;;;;;;;3.80;1.60;;;15.10;60.50;;;;;;5034520;28;20030;-67
2020/12/19 10:47:23;;;;;;;2.88;1.48;;;15.20;60.30;;;;;;5032732;28;20033;-66
2020/12/19 10:49:51;;;;;;;3.50;1.60;;;14.60;61.30;;;;;;5034699;28;20048;-66
2020/12/19 10:52:17;;;;;;;3.78;1.67;;;14.50;60.90;;;;;;5034144;28;20338;-67
2020/12/19 10:54:43;;;;;;;4.88;2.28;;;14.40;62.20;;;;;;5034305;28;20040;-65
2020/12/19 10:57:08;;;;;;;3.92;1.75;;;14.90;62.00;;;;;;5031723;28;20032;-66
2020/12/19 10:59:34;;;;;;;4.07;1.60;;;14.90;61.10;;;;;;5030131;28;20325;-66
2020/12/19 11:01:59;;;;;;;3.95;1.83;;;14.90;61.50;;;;;;5029925;28;20033;-66
2020/12/19 11:04:25;;;;;;;4.32;1.88;;;14.80;61.20;;;;;;5029965;28;20057;-66
2020/12/19 11:06:51;;;;;;;4.32;1.77;;;14.90;61.80;;;;;;5034735;28;20462;-66
2020/12/19 11:09:17;;;;;;;4.00;1.73;;;15.10;60.00;;;;;;5034327;28;20036;-66
2020/12/19 11:11:51;;;;;;;3.83;1.77;;;14.90;61.10;;;;;;5026366;28;20112;-65
2020/12/19 11:14:32;;;;;;;4.78;2.00;;;14.60;60.80;;;;;;5034906;28;20032;-66
2020/12/19 11:17:01;;;;;;;3.50;1.70;;;13.80;62.60;;;;;;5033420;28;20037;-66
2020/12/19 11:19:30;;;;;;;3.72;1.77;;;14.00;62.60;;;;;;5034590;28;20018;-65
2020/12/19 11:21:55;;;;;;;4.15;1.67;;;14.20;62.30;;;;;;5032101;28;20117;-67
2020/12/19 11:24:22;;;;;;;3.65;1.75;;;13.80;62.80;;;;;;5033412;28;20100;-66
2020/12/19 11:26:59;;;;;;;6.28;1.90;;;13.90;63.70;;;;;;5034075;28;20024;-66
2020/12/19 11:29:24;;;;;;;4.75;1.75;;;13.90;64.00;;;;;;5032469;28;20034;-68
2020/12/19 11:31:50;;;;;;;3.75;1.48;;;14.40;62.10;;;;;;5033120;28;20041;-66
2020/12/19 11:34:16;;;;;;;3.47;1.70;;;14.70;61.80;;;;;;5043570;28;20441;-67
2020/12/19 11:36:41;;;;;;;3.45;1.63;;;15.20;61.60;;;;;;5040024;28;20021;-67
2020/12/19 11:39:11;;;;;;;3.83;1.70;;;15.00;61.50;;;;;;5045290;28;20040;-67
2020/12/19 11:41:40;;;;;;;3.88;1.70;;;15.50;60.70;;;;;;5041648;28;20385;-68
2020/12/19 11:44:07;;;;;;;2.80;1.40;;;15.70;61.30;;;;;;5033945;28;20034;-66
2020/12/19 11:46:33;;;;;;;4.05;2.00;;;15.20;59.60;;;;;;5028945;28;20034;-67
2020/12/19 11:48:59;;;;;;;3.03;1.30;;;14.20;60.90;;;;;;5022066;28;20128;-68
2020/12/19 11:51:29;;;;;;;6.40;1.85;;;14.00;61.80;;;;;;5033557;28;20045;-67
2020/12/19 11:53:56;;;;;;;4.32;1.70;;;13.70;62.30;;;;;;5033894;28;20025;-67
2020/12/19 11:56:22;;;;;;;3.65;1.70;;;13.70;63.40;;;;;;5034380;28;20037;-67
2020/12/19 11:58:47;;;;;;;6.00;2.05;;;13.90;62.90;;;;;;5034655;28;20029;-68
2020/12/19 12:01:13;;;;;;;3.70;1.90;;;14.00;62.80;;;;;;5033042;28;20017;-67
2020/12/19 12:03:39;;;;;;;4.05;1.80;;;14.30;63.10;;;;;;5032467;28;20112;-67
2020/12/19 12:06:06;;;;;;;5.68;1.80;;;14.20;62.10;;;;;;5017857;28;20034;-67
2020/12/19 12:08:32;;;;;;;4.03;1.90;;;14.20;63.30;;;;;;5033412;28;20307;-67
2020/12/19 12:10:58;;;;;;;4.32;1.80;;;14.50;62.60;;;;;;5033755;28;20037;-67
2020/12/19 12:13:24;;;;;;;4.00;1.85;;;14.90;63.40;;;;;;5033131;28;20029;-68
2020/12/19 12:15:49;;;;;;;3.25;1.75;;;15.40;61.10;;;;;;5033059;28;20111;-67
2020/12/19 12:18:15;;;;;;;3.58;1.58;;;15.30;61.60;;;;;;5033576;28;20078;-67
2020/12/19 12:20:43;;;;;;;4.57;1.67;;;15.10;60.30;;;;;;5049708;28;20044;-68
2020/12/19 12:23:09;;;;;;;4.50;1.70;;;14.90;62.10;;;;;;5033842;28;20029;-68
2020/12/19 12:25:34;;;;;;;3.90;1.80;;;15.30;62.30;;;;;;5035412;28;20044;-68
2020/12/19 12:28:00;;;;;;;3.90;2.15;;;15.50;61.00;;;;;;5034404;28;20025;-68
2020/12/19 12:30:25;;;;;;;3.40;1.60;;;15.50;61.40;;;;;;5034206;28;20025;-68
2020/12/19 12:32:51;;;;;;;3.63;1.70;;;15.40;61.10;;;;;;5034493;28;20429;-68
2020/12/19 12:35:17;;;;;;;5.13;1.88;;;15.40;61.30;;;;;;5037714;28;20033;-68
2020/12/19 12:37:42;;;;;;;3.92;1.80;;;15.50;61.00;;;;;;5026625;28;20026;-68
2020/12/19 12:40:08;;;;;;;3.85;1.73;;;15.60;61.40;;;;;;5021739;28;20027;-67
2020/12/19 12:42:36;;;;;;;11.27;5.47;;;15.40;60.80;;;;;;5037084;28;20026;-66
2020/12/19 12:45:02;;;;;;;8.13;4.80;;;15.00;66.40;;;;;;5034015;28;20045;-67
2020/12/19 12:47:27;;;;;;;10.38;5.70;;;14.70;67.20;;;;;;5024777;28;20410;-66
2020/12/19 12:49:53;;;;;;;9.52;5.90;;;14.20;70.30;;;;;;5017655;28;20250;-67
2020/12/19 12:52:18;;;;;;;8.23;5.70;;;13.80;71.80;;;;;;5035032;28;20079;-68
2020/12/19 12:54:44;;;;;;;11.80;6.10;;;13.80;72.80;;;;;;5037107;28;20387;-69
2020/12/19 12:57:12;;;;;;;11.57;6.47;;;13.40;73.70;;;;;;5037273;28;20030;-69
2020/12/19 12:59:39;;;;;;;12.50;6.38;;;13.20;74.70;;;;;;5037296;28;20017;-67